Pine Prairie, LA (70576)

1:15 AM CST on February 07, 2016 (GMT -0600)
Ville Platte | | Change Station
CLOSE
Current Station
Personal Weather Station
Location: Ville Platte, LA
Elevation: 92 ft
Nearby Weather Stations

Elev 92 ft 30.69 °N, 92.27 °W | Updated 18 seconds ago

Clear
Clear
35.1 °F
Feels Like 35 °F
N
0.0
Wind Variable Wind from West

Today
High -- | Low -- °F
--% Chance of Precip.
Yesterday
High -- | Low -- °F
Precip. -- in
Pressure 30.34 in
Visibility 5.0 miles
Clouds
Windchill 35 °F
Dew Point 35 °F
Humidity 99%
Rainfall 0.00 in
Snow Depth Not available.
6:57 AM 5:50 PM
Waning Crescent, 2% visible
METAR KACP 070655Z AUTO 00000KT 5SM BR M01/M01 A3034 RMK AO2 T10061009
Pressure 30.34 in
Visibility 5.0 miles
Clouds
Windchill 35 °F
Dew Point 35 °F
Humidity 99%
Rainfall 0.00 in
Snow Depth Not available.
6:57 AM 5:50 PM
Waning Crescent, 2% visible
METAR KACP 070655Z AUTO 00000KT 5SM BR M01/M01 A3034 RMK AO2 T10061009

10-Day Weather Forecast

Almanac

Astronomy

Feb. 07, 2016 Rise Set
Actual Time
Civil Twilight
Nautical Twilight
Astronomical Twilight
Moon
Length of Visible Light
Length of Day
Tomorrow will be .
, % of the Moon is Illuminated

Today's Extremes

State Highs State Lows

Community

WunderPhotos

Upload Photos

1,891,174 photos uploaded!

WunderBlog® & News

Nearby

Air Quality

  Air Quality AQ Index Pollutant
Not available.

Snow Depth

Station Depth Elevation

Earthquake Activity

City Distance Mag. Time & Date
Minimum magnitude displayed is 2.5.

Coastal Water Temperatures

Place Temperature

Stations

Nearby Weather Stations

Station Location Temp. Windchill Dew Point Humidity Wind Precip. Elev Updated Type
                   

Watches & Warnings

There are currently no watches in effect.